sensor_id;sensor_type;location;lat;lon;timestamp;P1;durP1;ratioP1;P2;durP2;ratioP2
69047;SDS011;56119;50.118;8.642;2023-07-29T00:02:09;13.60;;;10.55;;
69047;SDS011;56119;50.118;8.642;2023-07-29T00:04:35;12.57;;;10.20;;
69047;SDS011;56119;50.118;8.642;2023-07-29T00:07:01;12.10;;;10.80;;
69047;SDS011;56119;50.118;8.642;2023-07-29T00:09:27;15.50;;;12.90;;
69047;SDS011;56119;50.118;8.642;2023-07-29T00:11:53;13.77;;;11.48;;
69047;SDS011;56119;50.118;8.642;2023-07-29T00:14:19;11.48;;;10.27;;
69047;SDS011;56119;50.118;8.642;2023-07-29T00:16:45;13.13;;;10.85;;
69047;SDS011;56119;50.118;8.642;2023-07-29T00:19:11;13.65;;;11.93;;
69047;SDS011;56119;50.118;8.642;2023-07-29T00:21:37;14.93;;;12.07;;
69047;SDS011;56119;50.118;8.642;2023-07-29T00:24:03;14.43;;;12.37;;
69047;SDS011;56119;50.118;8.642;2023-07-29T00:26:29;14.70;;;12.27;;
69047;SDS011;56119;50.118;8.642;2023-07-29T00:28:55;16.13;;;12.95;;
69047;SDS011;56119;50.118;8.642;2023-07-29T00:31:21;16.85;;;15.07;;
69047;SDS011;56119;50.118;8.642;2023-07-29T00:33:48;13.25;;;11.85;;
69047;SDS011;56119;50.118;8.642;2023-07-29T00:36:14;15.02;;;12.43;;
69047;SDS011;56119;50.118;8.642;2023-07-29T00:38:40;16.25;;;13.52;;
69047;SDS011;56119;50.118;8.642;2023-07-29T00:41:06;18.73;;;15.63;;
69047;SDS011;56119;50.118;8.642;2023-07-29T00:43:32;15.93;;;13.45;;
69047;SDS011;56119;50.118;8.642;2023-07-29T00:45:59;15.93;;;13.38;;
69047;SDS011;56119;50.118;8.642;2023-07-29T00:48:25;18.08;;;12.95;;
69047;SDS011;56119;50.118;8.642;2023-07-29T00:50:51;18.90;;;15.02;;
69047;SDS011;56119;50.118;8.642;2023-07-29T00:53:17;15.73;;;13.98;;
69047;SDS011;56119;50.118;8.642;2023-07-29T00:55:43;18.13;;;14.75;;
69047;SDS011;56119;50.118;8.642;2023-07-29T00:58:09;17.55;;;14.35;;
69047;SDS011;56119;50.118;8.642;2023-07-29T01:00:36;17.95;;;15.18;;
69047;SDS011;56119;50.118;8.642;2023-07-29T01:03:02;16.85;;;14.85;;
69047;SDS011;56119;50.118;8.642;2023-07-29T01:05:33;19.48;;;15.45;;
69047;SDS011;56119;50.118;8.642;2023-07-29T01:08:06;15.82;;;13.77;;
69047;SDS011;56119;50.118;8.642;2023-07-29T01:13:12;17.50;;;14.07;;
69047;SDS011;56119;50.118;8.642;2023-07-29T01:15:50;17.40;;;14.68;;
69047;SDS011;56119;50.118;8.642;2023-07-29T01:18:23;19.27;;;16.60;;
69047;SDS011;56119;50.118;8.642;2023-07-29T01:20:53;18.98;;;16.50;;
69047;SDS011;56119;50.118;8.642;2023-07-29T01:23:32;19.42;;;16.13;;
69047;SDS011;56119;50.118;8.642;2023-07-29T01:25:58;19.50;;;17.35;;
69047;SDS011;56119;50.118;8.642;2023-07-29T01:28:24;17.77;;;15.13;;
69047;SDS011;56119;50.118;8.642;2023-07-29T01:30:51;20.10;;;16.35;;
69047;SDS011;56119;50.118;8.642;2023-07-29T01:34:01;22.15;;;16.92;;
69047;SDS011;56119;50.118;8.642;2023-07-29T01:36:11;18.25;;;15.15;;
69047;SDS011;56119;50.118;8.642;2023-07-29T01:38:38;19.10;;;16.35;;
69047;SDS011;56119;50.118;8.642;2023-07-29T01:41:06;17.52;;;15.30;;
69047;SDS011;56119;50.118;8.642;2023-07-29T01:43:32;17.05;;;14.38;;
69047;SDS011;56119;50.118;8.642;2023-07-29T01:46:00;15.77;;;13.68;;
69047;SDS011;56119;50.118;8.642;2023-07-29T01:48:26;16.65;;;14.82;;
69047;SDS011;56119;50.118;8.642;2023-07-29T01:50:55;16.08;;;14.38;;
69047;SDS011;56119;50.118;8.642;2023-07-29T01:53:21;17.98;;;13.68;;
69047;SDS011;56119;50.118;8.642;2023-07-29T01:55:47;14.43;;;12.82;;
69047;SDS011;56119;50.118;8.642;2023-07-29T01:58:13;14.73;;;12.05;;
69047;SDS011;56119;50.118;8.642;2023-07-29T02:00:39;14.30;;;11.65;;
69047;SDS011;56119;50.118;8.642;2023-07-29T02:03:05;13.60;;;11.35;;
69047;SDS011;56119;50.118;8.642;2023-07-29T02:05:31;12.73;;;10.93;;
69047;SDS011;56119;50.118;8.642;2023-07-29T02:07:57;12.70;;;10.27;;
69047;SDS011;56119;50.118;8.642;2023-07-29T02:10:23;10.40;;;9.30;;
69047;SDS011;56119;50.118;8.642;2023-07-29T02:12:49;13.02;;;9.57;;
69047;SDS011;56119;50.118;8.642;2023-07-29T02:15:15;11.73;;;8.82;;
69047;SDS011;56119;50.118;8.642;2023-07-29T02:17:41;11.30;;;8.18;;
69047;SDS011;56119;50.118;8.642;2023-07-29T02:20:08;12.10;;;8.75;;
69047;SDS011;56119;50.118;8.642;2023-07-29T02:22:35;10.35;;;8.32;;
69047;SDS011;56119;50.118;8.642;2023-07-29T02:25:01;11.40;;;9.45;;
69047;SDS011;56119;50.118;8.642;2023-07-29T02:27:27;12.05;;;9.07;;
69047;SDS011;56119;50.118;8.642;2023-07-29T02:29:53;9.02;;;8.07;;
69047;SDS011;56119;50.118;8.642;2023-07-29T02:32:20;10.77;;;8.02;;
69047;SDS011;56119;50.118;8.642;2023-07-29T02:34:46;12.88;;;8.80;;
69047;SDS011;56119;50.118;8.642;2023-07-29T02:37:12;10.02;;;7.47;;
69047;SDS011;56119;50.118;8.642;2023-07-29T02:39:38;9.50;;;8.05;;
69047;SDS011;56119;50.118;8.642;2023-07-29T02:42:04;8.85;;;7.75;;
69047;SDS011;56119;50.118;8.642;2023-07-29T02:44:30;9.52;;;7.35;;
69047;SDS011;56119;50.118;8.642;2023-07-29T02:46:56;10.55;;;7.88;;
69047;SDS011;56119;50.118;8.642;2023-07-29T02:49:22;12.07;;;8.20;;
69047;SDS011;56119;50.118;8.642;2023-07-29T02:51:48;11.98;;;8.88;;
69047;SDS011;56119;50.118;8.642;2023-07-29T02:54:14;13.50;;;9.90;;
69047;SDS011;56119;50.118;8.642;2023-07-29T02:56:40;14.25;;;10.20;;
69047;SDS011;56119;50.118;8.642;2023-07-29T02:59:06;11.85;;;9.20;;
69047;SDS011;56119;50.118;8.642;2023-07-29T03:01:32;9.88;;;8.80;;
69047;SDS011;56119;50.118;8.642;2023-07-29T03:03:58;12.27;;;9.75;;
69047;SDS011;56119;50.118;8.642;2023-07-29T03:06:24;15.35;;;11.60;;
69047;SDS011;56119;50.118;8.642;2023-07-29T03:08:50;11.68;;;8.52;;
69047;SDS011;56119;50.118;8.642;2023-07-29T03:11:16;11.68;;;8.50;;
69047;SDS011;56119;50.118;8.642;2023-07-29T03:13:43;11.52;;;8.70;;
69047;SDS011;56119;50.118;8.642;2023-07-29T03:16:10;9.75;;;7.03;;
69047;SDS011;56119;50.118;8.642;2023-07-29T03:18:36;9.20;;;7.47;;
69047;SDS011;56119;50.118;8.642;2023-07-29T03:21:02;10.15;;;6.53;;
69047;SDS011;56119;50.118;8.642;2023-07-29T03:23:28;9.95;;;6.95;;
69047;SDS011;56119;50.118;8.642;2023-07-29T03:25:55;10.93;;;7.10;;
69047;SDS011;56119;50.118;8.642;2023-07-29T03:28:23;9.60;;;7.50;;
69047;SDS011;56119;50.118;8.642;2023-07-29T03:30:49;8.85;;;7.95;;
69047;SDS011;56119;50.118;8.642;2023-07-29T03:33:15;10.43;;;7.53;;
69047;SDS011;56119;50.118;8.642;2023-07-29T03:35:41;9.55;;;8.07;;
69047;SDS011;56119;50.118;8.642;2023-07-29T03:38:09;9.05;;;7.75;;
69047;SDS011;56119;50.118;8.642;2023-07-29T03:40:36;9.32;;;8.10;;
69047;SDS011;56119;50.118;8.642;2023-07-29T03:43:02;9.25;;;8.35;;
69047;SDS011;56119;50.118;8.642;2023-07-29T03:45:28;9.10;;;8.20;;
69047;SDS011;56119;50.118;8.642;2023-07-29T03:47:54;9.50;;;7.97;;
69047;SDS011;56119;50.118;8.642;2023-07-29T03:50:20;8.38;;;7.47;;
69047;SDS011;56119;50.118;8.642;2023-07-29T03:52:46;7.80;;;7.00;;
69047;SDS011;56119;50.118;8.642;2023-07-29T03:55:12;9.85;;;8.73;;
69047;SDS011;56119;50.118;8.642;2023-07-29T03:57:38;12.02;;;9.02;;
69047;SDS011;56119;50.118;8.642;2023-07-29T04:00:04;11.00;;;8.52;;
69047;SDS011;56119;50.118;8.642;2023-07-29T04:02:31;8.65;;;7.20;;
69047;SDS011;56119;50.118;8.642;2023-07-29T04:04:57;16.95;;;8.73;;
69047;SDS011;56119;50.118;8.642;2023-07-29T04:07:23;9.20;;;7.80;;
69047;SDS011;56119;50.118;8.642;2023-07-29T04:09:49;9.48;;;8.13;;
69047;SDS011;56119;50.118;8.642;2023-07-29T04:12:15;9.38;;;8.18;;
69047;SDS011;56119;50.118;8.642;2023-07-29T04:14:41;13.25;;;9.63;;
69047;SDS011;56119;50.118;8.642;2023-07-29T04:17:07;12.23;;;8.88;;
69047;SDS011;56119;50.118;8.642;2023-07-29T04:19:33;12.10;;;9.27;;
69047;SDS011;56119;50.118;8.642;2023-07-29T04:21:59;11.35;;;10.05;;
69047;SDS011;56119;50.118;8.642;2023-07-29T04:24:25;10.85;;;9.13;;
69047;SDS011;56119;50.118;8.642;2023-07-29T04:26:51;12.70;;;10.15;;
69047;SDS011;56119;50.118;8.642;2023-07-29T04:29:17;11.93;;;10.38;;
69047;SDS011;56119;50.118;8.642;2023-07-29T04:31:43;12.25;;;9.98;;
69047;SDS011;56119;50.118;8.642;2023-07-29T04:34:09;13.73;;;9.73;;
69047;SDS011;56119;50.118;8.642;2023-07-29T04:36:35;13.32;;;10.88;;
69047;SDS011;56119;50.118;8.642;2023-07-29T04:39:01;10.40;;;9.35;;
69047;SDS011;56119;50.118;8.642;2023-07-29T04:41:27;11.48;;;10.25;;
69047;SDS011;56119;50.118;8.642;2023-07-29T04:43:53;12.88;;;11.32;;
69047;SDS011;56119;50.118;8.642;2023-07-29T04:46:19;12.95;;;11.43;;
69047;SDS011;56119;50.118;8.642;2023-07-29T04:48:45;16.65;;;12.85;;
69047;SDS011;56119;50.118;8.642;2023-07-29T04:51:11;16.35;;;14.57;;
69047;SDS011;56119;50.118;8.642;2023-07-29T04:53:37;14.23;;;12.73;;
69047;SDS011;56119;50.118;8.642;2023-07-29T04:56:03;14.85;;;12.65;;
69047;SDS011;56119;50.118;8.642;2023-07-29T04:58:29;16.42;;;14.50;;
69047;SDS011;56119;50.118;8.642;2023-07-29T05:00:55;15.82;;;14.30;;
69047;SDS011;56119;50.118;8.642;2023-07-29T05:03:21;14.77;;;12.50;;
69047;SDS011;56119;50.118;8.642;2023-07-29T05:05:47;16.52;;;14.93;;
69047;SDS011;56119;50.118;8.642;2023-07-29T05:08:13;15.20;;;13.63;;
69047;SDS011;56119;50.118;8.642;2023-07-29T05:10:39;18.98;;;15.68;;
69047;SDS011;56119;50.118;8.642;2023-07-29T05:13:06;14.80;;;13.15;;
69047;SDS011;56119;50.118;8.642;2023-07-29T05:15:32;16.25;;;14.60;;
69047;SDS011;56119;50.118;8.642;2023-07-29T05:17:58;14.50;;;13.13;;
69047;SDS011;56119;50.118;8.642;2023-07-29T05:20:24;14.40;;;12.90;;
69047;SDS011;56119;50.118;8.642;2023-07-29T05:22:50;18.80;;;14.18;;
69047;SDS011;56119;50.118;8.642;2023-07-29T05:25:16;15.02;;;13.27;;
69047;SDS011;56119;50.118;8.642;2023-07-29T05:27:42;13.60;;;11.43;;
69047;SDS011;56119;50.118;8.642;2023-07-29T05:30:08;12.75;;;11.55;;
69047;SDS011;56119;50.118;8.642;2023-07-29T05:32:34;14.60;;;11.15;;
69047;SDS011;56119;50.118;8.642;2023-07-29T05:35:00;12.02;;;10.40;;
69047;SDS011;56119;50.118;8.642;2023-07-29T05:37:26;11.55;;;10.35;;
69047;SDS011;56119;50.118;8.642;2023-07-29T05:39:52;12.80;;;11.45;;
69047;SDS011;56119;50.118;8.642;2023-07-29T05:42:18;13.13;;;10.82;;
69047;SDS011;56119;50.118;8.642;2023-07-29T05:44:44;10.68;;;9.55;;
69047;SDS011;56119;50.118;8.642;2023-07-29T05:47:10;10.13;;;9.23;;
69047;SDS011;56119;50.118;8.642;2023-07-29T05:49:36;10.40;;;8.55;;
69047;SDS011;56119;50.118;8.642;2023-07-29T05:52:02;10.20;;;9.18;;
69047;SDS011;56119;50.118;8.642;2023-07-29T05:54:28;11.93;;;10.57;;
69047;SDS011;56119;50.118;8.642;2023-07-29T05:56:54;13.45;;;11.90;;
69047;SDS011;56119;50.118;8.642;2023-07-29T05:59:20;12.90;;;11.57;;
69047;SDS011;56119;50.118;8.642;2023-07-29T06:01:46;10.70;;;9.70;;
69047;SDS011;56119;50.118;8.642;2023-07-29T06:04:12;12.10;;;10.82;;
69047;SDS011;56119;50.118;8.642;2023-07-29T06:06:38;13.98;;;11.07;;
69047;SDS011;56119;50.118;8.642;2023-07-29T06:09:04;12.95;;;11.85;;
69047;SDS011;56119;50.118;8.642;2023-07-29T06:11:30;12.48;;;11.27;;
69047;SDS011;56119;50.118;8.642;2023-07-29T06:13:56;15.07;;;13.52;;
69047;SDS011;56119;50.118;8.642;2023-07-29T06:16:22;12.88;;;11.57;;
69047;SDS011;56119;50.118;8.642;2023-07-29T06:18:48;13.93;;;12.73;;
69047;SDS011;56119;50.118;8.642;2023-07-29T06:21:14;14.77;;;13.27;;
69047;SDS011;56119;50.118;8.642;2023-07-29T06:23:42;16.98;;;15.20;;
69047;SDS011;56119;50.118;8.642;2023-07-29T06:26:08;18.63;;;16.38;;
69047;SDS011;56119;50.118;8.642;2023-07-29T06:28:34;17.23;;;15.52;;
69047;SDS011;56119;50.118;8.642;2023-07-29T06:31:00;20.48;;;18.38;;
69047;SDS011;56119;50.118;8.642;2023-07-29T06:33:26;22.98;;;20.65;;
69047;SDS011;56119;50.118;8.642;2023-07-29T06:35:52;26.05;;;22.23;;
69047;SDS011;56119;50.118;8.642;2023-07-29T06:38:18;21.23;;;18.92;;
69047;SDS011;56119;50.118;8.642;2023-07-29T06:40:46;17.80;;;16.00;;
69047;SDS011;56119;50.118;8.642;2023-07-29T06:43:13;17.58;;;15.98;;
69047;SDS011;56119;50.118;8.642;2023-07-29T06:45:39;16.33;;;14.73;;
69047;SDS011;56119;50.118;8.642;2023-07-29T06:48:05;15.75;;;14.15;;
69047;SDS011;56119;50.118;8.642;2023-07-29T06:50:30;12.43;;;11.20;;
69047;SDS011;56119;50.118;8.642;2023-07-29T06:52:56;13.90;;;12.48;;
69047;SDS011;56119;50.118;8.642;2023-07-29T06:55:22;13.85;;;11.48;;
69047;SDS011;56119;50.118;8.642;2023-07-29T06:57:48;10.68;;;9.45;;
69047;SDS011;56119;50.118;8.642;2023-07-29T07:00:14;12.15;;;10.20;;
69047;SDS011;56119;50.118;8.642;2023-07-29T07:02:40;10.85;;;9.85;;
69047;SDS011;56119;50.118;8.642;2023-07-29T07:05:06;13.50;;;11.77;;
69047;SDS011;56119;50.118;8.642;2023-07-29T07:07:32;13.95;;;12.50;;
69047;SDS011;56119;50.118;8.642;2023-07-29T07:09:58;15.45;;;13.75;;
69047;SDS011;56119;50.118;8.642;2023-07-29T07:12:24;17.67;;;14.88;;
69047;SDS011;56119;50.118;8.642;2023-07-29T07:14:50;17.30;;;15.57;;
69047;SDS011;56119;50.118;8.642;2023-07-29T07:17:16;17.98;;;16.13;;
69047;SDS011;56119;50.118;8.642;2023-07-29T07:19:43;16.52;;;14.77;;
69047;SDS011;56119;50.118;8.642;2023-07-29T07:22:09;15.70;;;14.10;;
69047;SDS011;56119;50.118;8.642;2023-07-29T07:24:35;18.98;;;17.08;;
69047;SDS011;56119;50.118;8.642;2023-07-29T07:27:01;18.27;;;16.38;;
69047;SDS011;56119;50.118;8.642;2023-07-29T07:29:28;16.45;;;14.85;;
69047;SDS011;56119;50.118;8.642;2023-07-29T07:31:56;18.98;;;16.98;;
69047;SDS011;56119;50.118;8.642;2023-07-29T07:34:22;17.33;;;15.57;;
69047;SDS011;56119;50.118;8.642;2023-07-29T07:36:48;17.88;;;15.98;;
69047;SDS011;56119;50.118;8.642;2023-07-29T07:39:14;17.35;;;15.05;;
69047;SDS011;56119;50.118;8.642;2023-07-29T07:41:41;19.85;;;17.40;;
69047;SDS011;56119;50.118;8.642;2023-07-29T07:44:07;16.45;;;14.85;;
69047;SDS011;56119;50.118;8.642;2023-07-29T07:46:33;17.10;;;14.57;;
69047;SDS011;56119;50.118;8.642;2023-07-29T07:48:59;17.38;;;15.25;;
69047;SDS011;56119;50.118;8.642;2023-07-29T07:51:25;16.92;;;15.13;;
69047;SDS011;56119;50.118;8.642;2023-07-29T07:53:51;16.63;;;15.00;;
69047;SDS011;56119;50.118;8.642;2023-07-29T07:56:17;18.33;;;16.50;;
69047;SDS011;56119;50.118;8.642;2023-07-29T07:58:42;19.27;;;17.27;;
69047;SDS011;56119;50.118;8.642;2023-07-29T08:01:09;18.98;;;16.90;;
69047;SDS011;56119;50.118;8.642;2023-07-29T08:03:35;17.80;;;16.27;;
69047;SDS011;56119;50.118;8.642;2023-07-29T08:06:01;18.63;;;16.67;;
69047;SDS011;56119;50.118;8.642;2023-07-29T08:08:27;18.35;;;16.45;;
69047;SDS011;56119;50.118;8.642;2023-07-29T08:10:54;18.85;;;16.95;;
69047;SDS011;56119;50.118;8.642;2023-07-29T08:13:20;22.33;;;19.90;;
69047;SDS011;56119;50.118;8.642;2023-07-29T08:15:50;20.50;;;17.20;;
69047;SDS011;56119;50.118;8.642;2023-07-29T08:18:16;16.88;;;15.02;;
69047;SDS011;56119;50.118;8.642;2023-07-29T08:20:52;19.75;;;17.75;;
69047;SDS011;56119;50.118;8.642;2023-07-29T08:23:19;13.77;;;12.38;;
69047;SDS011;56119;50.118;8.642;2023-07-29T08:25:49;13.23;;;11.93;;
69047;SDS011;56119;50.118;8.642;2023-07-29T08:28:15;13.38;;;12.07;;
69047;SDS011;56119;50.118;8.642;2023-07-29T08:30:41;13.15;;;11.85;;
69047;SDS011;56119;50.118;8.642;2023-07-29T08:33:07;11.50;;;10.32;;
69047;SDS011;56119;50.118;8.642;2023-07-29T08:35:33;9.57;;;8.73;;
69047;SDS011;56119;50.118;8.642;2023-07-29T08:37:59;12.07;;;9.25;;
69047;SDS011;56119;50.118;8.642;2023-07-29T08:40:26;9.93;;;8.73;;
69047;SDS011;56119;50.118;8.642;2023-07-29T08:42:53;9.57;;;8.68;;
69047;SDS011;56119;50.118;8.642;2023-07-29T08:45:21;8.20;;;7.40;;
69047;SDS011;56119;50.118;8.642;2023-07-29T08:47:47;7.93;;;5.88;;
69047;SDS011;56119;50.118;8.642;2023-07-29T08:50:14;7.05;;;5.85;;
69047;SDS011;56119;50.118;8.642;2023-07-29T08:52:40;5.72;;;4.82;;
69047;SDS011;56119;50.118;8.642;2023-07-29T08:55:07;8.00;;;5.50;;
69047;SDS011;56119;50.118;8.642;2023-07-29T08:57:33;6.82;;;4.22;;
69047;SDS011;56119;50.118;8.642;2023-07-29T09:00:00;5.05;;;3.63;;
69047;SDS011;56119;50.118;8.642;2023-07-29T09:02:27;3.78;;;3.08;;
69047;SDS011;56119;50.118;8.642;2023-07-29T09:04:54;3.97;;;3.55;;
69047;SDS011;56119;50.118;8.642;2023-07-29T09:07:20;4.93;;;3.15;;
69047;SDS011;56119;50.118;8.642;2023-07-29T09:09:46;4.32;;;3.13;;
69047;SDS011;56119;50.118;8.642;2023-07-29T09:12:12;5.30;;;3.00;;
69047;SDS011;56119;50.118;8.642;2023-07-29T09:14:38;4.05;;;2.63;;
69047;SDS011;56119;50.118;8.642;2023-07-29T09:17:06;4.72;;;2.72;;
69047;SDS011;56119;50.118;8.642;2023-07-29T09:19:33;1.60;;;1.50;;
69047;SDS011;56119;50.118;8.642;2023-07-29T09:21:59;3.60;;;1.95;;
69047;SDS011;56119;50.118;8.642;2023-07-29T09:24:25;4.30;;;1.92;;
69047;SDS011;56119;50.118;8.642;2023-07-29T09:26:54;1.73;;;1.40;;
69047;SDS011;56119;50.118;8.642;2023-07-29T09:29:23;3.30;;;1.38;;
69047;SDS011;56119;50.118;8.642;2023-07-29T09:31:53;2.25;;;1.00;;
69047;SDS011;56119;50.118;8.642;2023-07-29T09:34:19;2.05;;;1.10;;
69047;SDS011;56119;50.118;8.642;2023-07-29T09:36:45;1.40;;;1.10;;
69047;SDS011;56119;50.118;8.642;2023-07-29T09:39:11;1.40;;;1.30;;
69047;SDS011;56119;50.118;8.642;2023-07-29T09:41:38;3.08;;;1.20;;
69047;SDS011;56119;50.118;8.642;2023-07-29T09:44:04;3.45;;;1.20;;
69047;SDS011;56119;50.118;8.642;2023-07-29T09:46:34;2.13;;;1.10;;
69047;SDS011;56119;50.118;8.642;2023-07-29T09:49:04;2.15;;;1.13;;
69047;SDS011;56119;50.118;8.642;2023-07-29T09:51:31;1.48;;;1.00;;
69047;SDS011;56119;50.118;8.642;2023-07-29T09:53:57;2.03;;;0.90;;
69047;SDS011;56119;50.118;8.642;2023-07-29T09:56:26;1.77;;;0.98;;
69047;SDS011;56119;50.118;8.642;2023-07-29T09:58:55;1.10;;;0.90;;
69047;SDS011;56119;50.118;8.642;2023-07-29T10:01:22;2.08;;;0.85;;
69047;SDS011;56119;50.118;8.642;2023-07-29T10:03:48;0.70;;;0.70;;
69047;SDS011;56119;50.118;8.642;2023-07-29T10:06:14;1.42;;;1.00;;
69047;SDS011;56119;50.118;8.642;2023-07-29T10:08:41;1.88;;;0.85;;
69047;SDS011;56119;50.118;8.642;2023-07-29T10:11:08;2.30;;;1.38;;
69047;SDS011;56119;50.118;8.642;2023-07-29T10:13:34;2.80;;;1.58;;
69047;SDS011;56119;50.118;8.642;2023-07-29T10:16:01;1.20;;;1.10;;
69047;SDS011;56119;50.118;8.642;2023-07-29T10:18:28;2.50;;;1.30;;
69047;SDS011;56119;50.118;8.642;2023-07-29T10:20:54;2.67;;;0.93;;
69047;SDS011;56119;50.118;8.642;2023-07-29T10:23:22;1.67;;;1.20;;
69047;SDS011;56119;50.118;8.642;2023-07-29T10:25:50;3.25;;;1.33;;
69047;SDS011;56119;50.118;8.642;2023-07-29T10:28:20;2.22;;;1.17;;
69047;SDS011;56119;50.118;8.642;2023-07-29T10:30:50;2.40;;;1.25;;
69047;SDS011;56119;50.118;8.642;2023-07-29T10:33:17;2.60;;;1.00;;
69047;SDS011;56119;50.118;8.642;2023-07-29T10:35:43;1.35;;;1.20;;
69047;SDS011;56119;50.118;8.642;2023-07-29T10:38:09;2.03;;;1.30;;
69047;SDS011;56119;50.118;8.642;2023-07-29T10:43:11;1.08;;;0.98;;
69047;SDS011;56119;50.118;8.642;2023-07-29T10:45:38;1.83;;;1.10;;
69047;SDS011;56119;50.118;8.642;2023-07-29T10:48:05;1.73;;;1.05;;
69047;SDS011;56119;50.118;8.642;2023-07-29T10:50:31;3.05;;;1.20;;
69047;SDS011;56119;50.118;8.642;2023-07-29T10:52:57;2.13;;;1.27;;
69047;SDS011;56119;50.118;8.642;2023-07-29T10:55:33;2.35;;;1.13;;
69047;SDS011;56119;50.118;8.642;2023-07-29T11:00:32;1.55;;;1.42;;
69047;SDS011;56119;50.118;8.642;2023-07-29T11:02:59;1.85;;;1.20;;
69047;SDS011;56119;50.118;8.642;2023-07-29T11:05:45;3.83;;;1.50;;
69047;SDS011;56119;50.118;8.642;2023-07-29T11:08:18;1.25;;;0.93;;
69047;SDS011;56119;50.118;8.642;2023-07-29T11:10:44;3.67;;;1.45;;
69047;SDS011;56119;50.118;8.642;2023-07-29T11:13:10;3.70;;;1.67;;
69047;SDS011;56119;50.118;8.642;2023-07-29T11:15:37;2.60;;;1.60;;
69047;SDS011;56119;50.118;8.642;2023-07-29T11:18:04;1.45;;;1.05;;
69047;SDS011;56119;50.118;8.642;2023-07-29T11:20:31;1.40;;;1.20;;
69047;SDS011;56119;50.118;8.642;2023-07-29T11:22:58;2.42;;;1.77;;
69047;SDS011;56119;50.118;8.642;2023-07-29T11:25:25;2.53;;;1.50;;
69047;SDS011;56119;50.118;8.642;2023-07-29T11:27:52;2.25;;;1.65;;
69047;SDS011;56119;50.118;8.642;2023-07-29T11:30:19;3.25;;;1.45;;
69047;SDS011;56119;50.118;8.642;2023-07-29T11:32:45;2.13;;;1.30;;
69047;SDS011;56119;50.118;8.642;2023-07-29T11:35:15;2.25;;;1.08;;
69047;SDS011;56119;50.118;8.642;2023-07-29T11:37:43;1.77;;;1.05;;
69047;SDS011;56119;50.118;8.642;2023-07-29T11:40:09;1.77;;;1.25;;
69047;SDS011;56119;50.118;8.642;2023-07-29T11:42:36;1.90;;;1.50;;
69047;SDS011;56119;50.118;8.642;2023-07-29T11:45:03;1.25;;;1.15;;
69047;SDS011;56119;50.118;8.642;2023-07-29T11:47:31;3.38;;;1.70;;
69047;SDS011;56119;50.118;8.642;2023-07-29T11:50:01;2.55;;;1.58;;
69047;SDS011;56119;50.118;8.642;2023-07-29T11:52:28;2.05;;;1.20;;
69047;SDS011;56119;50.118;8.642;2023-07-29T11:54:54;2.03;;;1.27;;
69047;SDS011;56119;50.118;8.642;2023-07-29T11:57:20;3.60;;;1.75;;
69047;SDS011;56119;50.118;8.642;2023-07-29T11:59:46;2.10;;;1.25;;
69047;SDS011;56119;50.118;8.642;2023-07-29T12:02:13;2.95;;;1.60;;
69047;SDS011;56119;50.118;8.642;2023-07-29T12:04:40;2.17;;;1.40;;
69047;SDS011;56119;50.118;8.642;2023-07-29T12:07:07;2.47;;;1.60;;
69047;SDS011;56119;50.118;8.642;2023-07-29T12:09:33;3.17;;;1.58;;
69047;SDS011;56119;50.118;8.642;2023-07-29T12:12:00;4.00;;;1.60;;
69047;SDS011;56119;50.118;8.642;2023-07-29T12:14:26;2.17;;;1.48;;
69047;SDS011;56119;50.118;8.642;2023-07-29T12:16:53;2.05;;;1.70;;
69047;SDS011;56119;50.118;8.642;2023-07-29T12:19:19;3.22;;;2.95;;
69047;SDS011;56119;50.118;8.642;2023-07-29T12:21:47;2.63;;;1.60;;
69047;SDS011;56119;50.118;8.642;2023-07-29T12:24:13;2.53;;;1.27;;
69047;SDS011;56119;50.118;8.642;2023-07-29T12:26:39;3.38;;;1.60;;
69047;SDS011;56119;50.118;8.642;2023-07-29T12:29:13;2.55;;;1.45;;
69047;SDS011;56119;50.118;8.642;2023-07-29T12:31:39;2.22;;;1.40;;
69047;SDS011;56119;50.118;8.642;2023-07-29T12:34:05;1.48;;;1.30;;
69047;SDS011;56119;50.118;8.642;2023-07-29T12:36:43;2.20;;;1.73;;
69047;SDS011;56119;50.118;8.642;2023-07-29T12:39:19;2.53;;;1.73;;
69047;SDS011;56119;50.118;8.642;2023-07-29T12:41:46;2.15;;;1.58;;
69047;SDS011;56119;50.118;8.642;2023-07-29T12:44:12;2.63;;;1.90;;
69047;SDS011;56119;50.118;8.642;2023-07-29T12:46:38;3.08;;;1.20;;
69047;SDS011;56119;50.118;8.642;2023-07-29T12:49:04;2.00;;;1.50;;
69047;SDS011;56119;50.118;8.642;2023-07-29T12:51:30;1.38;;;1.27;;
69047;SDS011;56119;50.118;8.642;2023-07-29T12:53:56;1.83;;;1.33;;
69047;SDS011;56119;50.118;8.642;2023-07-29T12:56:22;2.45;;;1.77;;
69047;SDS011;56119;50.118;8.642;2023-07-29T12:58:48;1.88;;;1.45;;
69047;SDS011;56119;50.118;8.642;2023-07-29T13:01:14;2.58;;;1.60;;
69047;SDS011;56119;50.118;8.642;2023-07-29T13:03:47;1.73;;;1.50;;
69047;SDS011;56119;50.118;8.642;2023-07-29T13:06:13;2.58;;;1.13;;
69047;SDS011;56119;50.118;8.642;2023-07-29T13:08:39;1.90;;;1.40;;
69047;SDS011;56119;50.118;8.642;2023-07-29T13:11:05;3.08;;;1.63;;
69047;SDS011;56119;50.118;8.642;2023-07-29T13:13:31;2.75;;;1.40;;
69047;SDS011;56119;50.118;8.642;2023-07-29T13:15:57;3.45;;;1.40;;
69047;SDS011;56119;50.118;8.642;2023-07-29T13:18:23;1.95;;;1.45;;
69047;SDS011;56119;50.118;8.642;2023-07-29T13:20:49;3.20;;;1.88;;
69047;SDS011;56119;50.118;8.642;2023-07-29T13:23:15;2.08;;;1.63;;
69047;SDS011;56119;50.118;8.642;2023-07-29T13:25:42;5.00;;;1.60;;
69047;SDS011;56119;50.118;8.642;2023-07-29T13:28:11;2.47;;;1.60;;
69047;SDS011;56119;50.118;8.642;2023-07-29T13:30:40;2.72;;;1.52;;
69047;SDS011;56119;50.118;8.642;2023-07-29T13:33:06;2.33;;;1.50;;
69047;SDS011;56119;50.118;8.642;2023-07-29T13:35:32;2.40;;;1.50;;
69047;SDS011;56119;50.118;8.642;2023-07-29T13:37:58;2.58;;;1.70;;
69047;SDS011;56119;50.118;8.642;2023-07-29T13:40:24;2.03;;;1.63;;
69047;SDS011;56119;50.118;8.642;2023-07-29T13:42:50;2.85;;;2.20;;
69047;SDS011;56119;50.118;8.642;2023-07-29T13:45:17;2.47;;;1.40;;
69047;SDS011;56119;50.118;8.642;2023-07-29T13:47:43;1.92;;;1.52;;
69047;SDS011;56119;50.118;8.642;2023-07-29T13:50:09;2.63;;;1.80;;
69047;SDS011;56119;50.118;8.642;2023-07-29T13:52:36;3.75;;;1.23;;
69047;SDS011;56119;50.118;8.642;2023-07-29T13:55:02;3.60;;;1.23;;
69047;SDS011;56119;50.118;8.642;2023-07-29T13:57:29;2.83;;;1.90;;
69047;SDS011;56119;50.118;8.642;2023-07-29T13:59:54;3.05;;;1.48;;
69047;SDS011;56119;50.118;8.642;2023-07-29T14:02:20;3.70;;;1.83;;
69047;SDS011;56119;50.118;8.642;2023-07-29T14:04:46;2.47;;;1.60;;
69047;SDS011;56119;50.118;8.642;2023-07-29T14:07:12;2.25;;;1.38;;
69047;SDS011;56119;50.118;8.642;2023-07-29T14:09:38;4.03;;;1.80;;
69047;SDS011;56119;50.118;8.642;2023-07-29T14:12:05;2.03;;;1.50;;
69047;SDS011;56119;50.118;8.642;2023-07-29T14:14:31;1.98;;;1.30;;
69047;SDS011;56119;50.118;8.642;2023-07-29T14:16:57;2.72;;;1.40;;
69047;SDS011;56119;50.118;8.642;2023-07-29T14:19:23;1.77;;;1.38;;
69047;SDS011;56119;50.118;8.642;2023-07-29T14:21:49;2.83;;;1.75;;
69047;SDS011;56119;50.118;8.642;2023-07-29T14:24:15;1.60;;;1.20;;
69047;SDS011;56119;50.118;8.642;2023-07-29T14:26:41;1.50;;;1.30;;
69047;SDS011;56119;50.118;8.642;2023-07-29T14:29:07;1.75;;;1.45;;
69047;SDS011;56119;50.118;8.642;2023-07-29T14:31:33;1.77;;;1.52;;
69047;SDS011;56119;50.118;8.642;2023-07-29T14:33:59;2.45;;;1.30;;
69047;SDS011;56119;50.118;8.642;2023-07-29T14:36:25;2.00;;;1.60;;
69047;SDS011;56119;50.118;8.642;2023-07-29T14:38:51;1.95;;;1.50;;
69047;SDS011;56119;50.118;8.642;2023-07-29T14:41:17;2.15;;;1.48;;